sensor_id;sensor_type;location;lat;lon;timestamp;P1;durP1;ratioP1;P2;durP2;ratioP2
34064;SDS011;20339;49.754;20.158;2023-02-01T00:00:14;1.50;;;1.10;;
34064;SDS011;20339;49.754;20.158;2023-02-01T00:03:06;2.50;;;1.20;;
34064;SDS011;20339;49.754;20.158;2023-02-01T00:05:39;2.20;;;1.60;;
34064;SDS011;20339;49.754;20.158;2023-02-01T00:08:10;1.50;;;1.20;;
34064;SDS011;20339;49.754;20.158;2023-02-01T00:10:41;2.10;;;1.20;;
34064;SDS011;20339;49.754;20.158;2023-02-01T00:13:12;6.00;;;1.60;;
34064;SDS011;20339;49.754;20.158;2023-02-01T00:15:44;1.80;;;1.10;;
34064;SDS011;20339;49.754;20.158;2023-02-01T00:18:15;1.50;;;1.00;;
34064;SDS011;20339;49.754;20.158;2023-02-01T00:20:54;1.50;;;0.80;;
34064;SDS011;20339;49.754;20.158;2023-02-01T00:23:25;1.00;;;0.90;;
34064;SDS011;20339;49.754;20.158;2023-02-01T00:25:59;0.60;;;0.50;;
34064;SDS011;20339;49.754;20.158;2023-02-01T00:28:30;1.00;;;0.60;;
34064;SDS011;20339;49.754;20.158;2023-02-01T00:31:03;1.80;;;1.10;;
34064;SDS011;20339;49.754;20.158;2023-02-01T00:33:34;1.20;;;0.90;;
34064;SDS011;20339;49.754;20.158;2023-02-01T00:36:06;1.10;;;1.00;;
34064;SDS011;20339;49.754;20.158;2023-02-01T00:38:38;1.00;;;0.90;;
34064;SDS011;20339;49.754;20.158;2023-02-01T00:41:11;1.80;;;1.00;;
34064;SDS011;20339;49.754;20.158;2023-02-01T00:43:43;1.20;;;0.90;;
34064;SDS011;20339;49.754;20.158;2023-02-01T00:46:16;2.10;;;1.10;;
34064;SDS011;20339;49.754;20.158;2023-02-01T00:48:49;0.60;;;0.50;;
34064;SDS011;20339;49.754;20.158;2023-02-01T00:51:21;2.90;;;0.90;;
34064;SDS011;20339;49.754;20.158;2023-02-01T00:53:54;0.80;;;0.80;;
34064;SDS011;20339;49.754;20.158;2023-02-01T00:56:27;0.90;;;0.70;;
34064;SDS011;20339;49.754;20.158;2023-02-01T00:58:58;1.50;;;0.90;;
34064;SDS011;20339;49.754;20.158;2023-02-01T01:01:29;3.40;;;1.00;;
34064;SDS011;20339;49.754;20.158;2023-02-01T01:04:00;1.50;;;0.60;;
34064;SDS011;20339;49.754;20.158;2023-02-01T01:06:32;2.80;;;1.40;;
34064;SDS011;20339;49.754;20.158;2023-02-01T01:09:04;1.60;;;1.10;;
34064;SDS011;20339;49.754;20.158;2023-02-01T01:11:36;1.60;;;1.10;;
34064;SDS011;20339;49.754;20.158;2023-02-01T01:14:09;1.50;;;1.20;;
34064;SDS011;20339;49.754;20.158;2023-02-01T01:16:40;2.20;;;0.90;;
34064;SDS011;20339;49.754;20.158;2023-02-01T01:19:11;2.10;;;1.20;;
34064;SDS011;20339;49.754;20.158;2023-02-01T01:21:42;3.70;;;1.70;;
34064;SDS011;20339;49.754;20.158;2023-02-01T01:24:13;1.70;;;1.10;;
34064;SDS011;20339;49.754;20.158;2023-02-01T01:26:44;2.30;;;1.20;;
34064;SDS011;20339;49.754;20.158;2023-02-01T01:29:15;1.10;;;1.00;;
34064;SDS011;20339;49.754;20.158;2023-02-01T01:31:46;3.60;;;1.40;;
34064;SDS011;20339;49.754;20.158;2023-02-01T01:34:18;2.80;;;1.40;;
34064;SDS011;20339;49.754;20.158;2023-02-01T01:36:49;1.70;;;1.30;;
34064;SDS011;20339;49.754;20.158;2023-02-01T01:39:20;2.70;;;1.10;;
34064;SDS011;20339;49.754;20.158;2023-02-01T01:41:50;2.40;;;1.30;;
34064;SDS011;20339;49.754;20.158;2023-02-01T01:47:33;2.10;;;0.90;;
34064;SDS011;20339;49.754;20.158;2023-02-01T01:50:10;2.10;;;1.10;;
34064;SDS011;20339;49.754;20.158;2023-02-01T01:52:45;2.90;;;1.10;;
34064;SDS011;20339;49.754;20.158;2023-02-01T01:55:19;3.10;;;1.40;;
34064;SDS011;20339;49.754;20.158;2023-02-01T01:57:51;2.90;;;1.40;;
34064;SDS011;20339;49.754;20.158;2023-02-01T02:00:26;1.70;;;0.90;;
34064;SDS011;20339;49.754;20.158;2023-02-01T02:02:58;3.40;;;2.00;;
34064;SDS011;20339;49.754;20.158;2023-02-01T02:05:43;4.50;;;1.30;;
34064;SDS011;20339;49.754;20.158;2023-02-01T02:08:18;4.20;;;1.10;;
34064;SDS011;20339;49.754;20.158;2023-02-01T02:10:52;4.80;;;1.50;;
34064;SDS011;20339;49.754;20.158;2023-02-01T02:13:31;2.60;;;1.10;;
34064;SDS011;20339;49.754;20.158;2023-02-01T02:22:32;3.90;;;1.40;;
34064;SDS011;20339;49.754;20.158;2023-02-01T02:25:21;1.20;;;0.90;;
34064;SDS011;20339;49.754;20.158;2023-02-01T02:28:16;1.60;;;0.70;;
34064;SDS011;20339;49.754;20.158;2023-02-01T02:31:06;2.40;;;0.50;;
34064;SDS011;20339;49.754;20.158;2023-02-01T02:36:47;3.90;;;1.20;;
34064;SDS011;20339;49.754;20.158;2023-02-01T02:39:27;2.90;;;0.70;;
34064;SDS011;20339;49.754;20.158;2023-02-01T02:42:10;4.20;;;0.90;;
34064;SDS011;20339;49.754;20.158;2023-02-01T02:45:05;1.40;;;0.40;;
34064;SDS011;20339;49.754;20.158;2023-02-01T02:48:00;4.90;;;1.00;;
34064;SDS011;20339;49.754;20.158;2023-02-01T02:50:40;2.10;;;0.90;;
34064;SDS011;20339;49.754;20.158;2023-02-01T02:53:34;4.80;;;1.20;;
34064;SDS011;20339;49.754;20.158;2023-02-01T02:56:34;2.90;;;0.90;;
34064;SDS011;20339;49.754;20.158;2023-02-01T02:59:24;1.20;;;0.60;;
34064;SDS011;20339;49.754;20.158;2023-02-01T03:02:21;2.90;;;0.60;;
34064;SDS011;20339;49.754;20.158;2023-02-01T03:05:13;1.30;;;0.40;;
34064;SDS011;20339;49.754;20.158;2023-02-01T03:07:49;1.40;;;0.50;;
34064;SDS011;20339;49.754;20.158;2023-02-01T03:10:29;2.60;;;0.60;;
34064;SDS011;20339;49.754;20.158;2023-02-01T03:13:07;1.20;;;0.40;;
34064;SDS011;20339;49.754;20.158;2023-02-01T03:15:50;4.50;;;1.00;;
34064;SDS011;20339;49.754;20.158;2023-02-01T03:18:28;4.00;;;1.00;;
34064;SDS011;20339;49.754;20.158;2023-02-01T03:21:06;1.60;;;0.70;;
34064;SDS011;20339;49.754;20.158;2023-02-01T03:23:42;4.90;;;1.30;;
34064;SDS011;20339;49.754;20.158;2023-02-01T03:26:14;6.10;;;1.30;;
34064;SDS011;20339;49.754;20.158;2023-02-01T03:28:52;3.60;;;1.10;;
34064;SDS011;20339;49.754;20.158;2023-02-01T03:31:29;6.40;;;1.10;;
34064;SDS011;20339;49.754;20.158;2023-02-01T03:34:00;7.20;;;2.00;;
34064;SDS011;20339;49.754;20.158;2023-02-01T03:36:34;5.70;;;1.40;;
34064;SDS011;20339;49.754;20.158;2023-02-01T03:39:09;5.50;;;1.40;;
34064;SDS011;20339;49.754;20.158;2023-02-01T03:41:49;0.90;;;0.70;;
34064;SDS011;20339;49.754;20.158;2023-02-01T03:44:23;3.60;;;1.20;;
34064;SDS011;20339;49.754;20.158;2023-02-01T03:46:58;5.30;;;1.70;;
34064;SDS011;20339;49.754;20.158;2023-02-01T03:49:35;4.30;;;2.00;;
34064;SDS011;20339;49.754;20.158;2023-02-01T03:52:11;4.50;;;1.70;;
34064;SDS011;20339;49.754;20.158;2023-02-01T03:54:46;3.50;;;1.20;;
34064;SDS011;20339;49.754;20.158;2023-02-01T03:57:18;2.70;;;1.20;;
34064;SDS011;20339;49.754;20.158;2023-02-01T03:59:57;4.30;;;1.60;;
34064;SDS011;20339;49.754;20.158;2023-02-01T04:02:36;6.10;;;1.10;;
34064;SDS011;20339;49.754;20.158;2023-02-01T04:05:08;4.90;;;1.40;;
34064;SDS011;20339;49.754;20.158;2023-02-01T04:07:39;3.00;;;1.20;;
34064;SDS011;20339;49.754;20.158;2023-02-01T04:10:11;5.00;;;1.40;;
34064;SDS011;20339;49.754;20.158;2023-02-01T04:12:42;4.20;;;1.20;;
34064;SDS011;20339;49.754;20.158;2023-02-01T04:15:13;5.80;;;1.40;;
34064;SDS011;20339;49.754;20.158;2023-02-01T04:17:45;3.40;;;0.90;;
34064;SDS011;20339;49.754;20.158;2023-02-01T04:20:16;2.40;;;0.80;;
34064;SDS011;20339;49.754;20.158;2023-02-01T04:22:48;2.20;;;1.00;;
34064;SDS011;20339;49.754;20.158;2023-02-01T04:25:19;2.20;;;0.80;;
34064;SDS011;20339;49.754;20.158;2023-02-01T04:27:50;5.00;;;1.70;;
34064;SDS011;20339;49.754;20.158;2023-02-01T04:30:21;3.40;;;1.20;;
34064;SDS011;20339;49.754;20.158;2023-02-01T04:32:52;3.20;;;0.70;;
34064;SDS011;20339;49.754;20.158;2023-02-01T04:35:23;3.00;;;0.70;;
34064;SDS011;20339;49.754;20.158;2023-02-01T04:37:57;3.00;;;1.10;;
34064;SDS011;20339;49.754;20.158;2023-02-01T04:40:29;2.60;;;1.00;;
34064;SDS011;20339;49.754;20.158;2023-02-01T04:43:00;2.20;;;0.90;;
34064;SDS011;20339;49.754;20.158;2023-02-01T04:45:31;6.60;;;1.60;;
34064;SDS011;20339;49.754;20.158;2023-02-01T04:48:02;3.80;;;1.30;;
34064;SDS011;20339;49.754;20.158;2023-02-01T04:50:36;2.80;;;1.00;;
34064;SDS011;20339;49.754;20.158;2023-02-01T04:53:07;5.60;;;1.00;;
34064;SDS011;20339;49.754;20.158;2023-02-01T04:55:38;3.20;;;1.50;;
34064;SDS011;20339;49.754;20.158;2023-02-01T04:58:09;2.10;;;0.90;;
34064;SDS011;20339;49.754;20.158;2023-02-01T05:00:40;3.60;;;0.70;;
34064;SDS011;20339;49.754;20.158;2023-02-01T05:03:11;4.10;;;1.30;;
34064;SDS011;20339;49.754;20.158;2023-02-01T05:05:42;2.20;;;0.90;;
34064;SDS011;20339;49.754;20.158;2023-02-01T05:08:13;2.10;;;0.90;;
34064;SDS011;20339;49.754;20.158;2023-02-01T05:10:46;1.60;;;0.50;;
34064;SDS011;20339;49.754;20.158;2023-02-01T05:13:17;1.70;;;0.80;;
34064;SDS011;20339;49.754;20.158;2023-02-01T05:16:06;2.70;;;0.60;;
34064;SDS011;20339;49.754;20.158;2023-02-01T05:18:38;3.60;;;0.90;;
34064;SDS011;20339;49.754;20.158;2023-02-01T05:21:09;6.00;;;1.30;;
34064;SDS011;20339;49.754;20.158;2023-02-01T05:23:40;6.50;;;1.20;;
34064;SDS011;20339;49.754;20.158;2023-02-01T05:26:28;2.90;;;1.40;;
34064;SDS011;20339;49.754;20.158;2023-02-01T05:29:00;3.50;;;1.10;;
34064;SDS011;20339;49.754;20.158;2023-02-01T05:31:31;2.40;;;1.30;;
34064;SDS011;20339;49.754;20.158;2023-02-01T05:34:03;2.80;;;1.20;;
34064;SDS011;20339;49.754;20.158;2023-02-01T05:36:34;2.80;;;0.80;;
34064;SDS011;20339;49.754;20.158;2023-02-01T05:39:07;1.80;;;1.10;;
34064;SDS011;20339;49.754;20.158;2023-02-01T05:41:39;4.80;;;0.90;;
34064;SDS011;20339;49.754;20.158;2023-02-01T05:44:10;2.80;;;1.30;;
34064;SDS011;20339;49.754;20.158;2023-02-01T05:46:41;3.20;;;1.30;;
34064;SDS011;20339;49.754;20.158;2023-02-01T05:49:12;3.10;;;1.10;;
34064;SDS011;20339;49.754;20.158;2023-02-01T05:51:47;3.80;;;1.10;;
34064;SDS011;20339;49.754;20.158;2023-02-01T05:54:18;1.80;;;0.90;;
34064;SDS011;20339;49.754;20.158;2023-02-01T05:56:49;3.30;;;1.30;;
34064;SDS011;20339;49.754;20.158;2023-02-01T05:59:20;5.20;;;1.80;;
34064;SDS011;20339;49.754;20.158;2023-02-01T06:01:51;3.90;;;1.60;;
34064;SDS011;20339;49.754;20.158;2023-02-01T06:04:22;9.90;;;1.90;;
34064;SDS011;20339;49.754;20.158;2023-02-01T06:06:56;4.40;;;1.50;;
34064;SDS011;20339;49.754;20.158;2023-02-01T06:09:27;2.70;;;1.10;;
34064;SDS011;20339;49.754;20.158;2023-02-01T06:11:58;5.90;;;2.60;;
34064;SDS011;20339;49.754;20.158;2023-02-01T06:14:30;7.90;;;1.90;;
34064;SDS011;20339;49.754;20.158;2023-02-01T06:17:05;3.00;;;1.60;;
34064;SDS011;20339;49.754;20.158;2023-02-01T06:19:36;4.20;;;1.50;;
34064;SDS011;20339;49.754;20.158;2023-02-01T06:22:08;10.50;;;2.10;;
34064;SDS011;20339;49.754;20.158;2023-02-01T06:24:39;2.90;;;1.50;;
34064;SDS011;20339;49.754;20.158;2023-02-01T06:27:10;9.40;;;1.80;;
34064;SDS011;20339;49.754;20.158;2023-02-01T06:29:42;5.30;;;1.50;;
34064;SDS011;20339;49.754;20.158;2023-02-01T06:32:13;6.30;;;1.60;;
34064;SDS011;20339;49.754;20.158;2023-02-01T06:34:45;6.60;;;1.60;;
34064;SDS011;20339;49.754;20.158;2023-02-01T06:37:16;4.80;;;1.40;;
34064;SDS011;20339;49.754;20.158;2023-02-01T06:39:47;4.70;;;1.70;;
34064;SDS011;20339;49.754;20.158;2023-02-01T06:42:18;8.90;;;1.70;;
34064;SDS011;20339;49.754;20.158;2023-02-01T06:44:49;5.00;;;1.20;;
34064;SDS011;20339;49.754;20.158;2023-02-01T06:47:20;6.50;;;2.10;;
34064;SDS011;20339;49.754;20.158;2023-02-01T06:49:51;7.40;;;2.40;;
34064;SDS011;20339;49.754;20.158;2023-02-01T06:52:22;7.00;;;1.90;;
34064;SDS011;20339;49.754;20.158;2023-02-01T06:54:52;7.50;;;2.10;;
34064;SDS011;20339;49.754;20.158;2023-02-01T06:57:23;6.10;;;1.00;;
34064;SDS011;20339;49.754;20.158;2023-02-01T06:59:58;10.50;;;2.20;;
34064;SDS011;20339;49.754;20.158;2023-02-01T07:02:29;10.70;;;1.90;;
34064;SDS011;20339;49.754;20.158;2023-02-01T07:05:00;7.00;;;1.60;;
34064;SDS011;20339;49.754;20.158;2023-02-01T07:07:31;3.50;;;1.80;;
34064;SDS011;20339;49.754;20.158;2023-02-01T07:10:02;8.90;;;2.10;;
34064;SDS011;20339;49.754;20.158;2023-02-01T07:12:34;4.70;;;1.50;;
34064;SDS011;20339;49.754;20.158;2023-02-01T07:15:08;4.20;;;1.80;;
34064;SDS011;20339;49.754;20.158;2023-02-01T07:17:40;5.10;;;1.40;;
34064;SDS011;20339;49.754;20.158;2023-02-01T07:20:15;8.30;;;1.20;;
34064;SDS011;20339;49.754;20.158;2023-02-01T07:22:46;3.50;;;1.30;;
34064;SDS011;20339;49.754;20.158;2023-02-01T07:25:17;3.80;;;1.10;;
34064;SDS011;20339;49.754;20.158;2023-02-01T07:27:48;8.70;;;1.90;;
34064;SDS011;20339;49.754;20.158;2023-02-01T07:30:20;5.60;;;2.00;;
34064;SDS011;20339;49.754;20.158;2023-02-01T07:32:51;7.50;;;1.90;;
34064;SDS011;20339;49.754;20.158;2023-02-01T07:35:22;7.40;;;2.30;;
34064;SDS011;20339;49.754;20.158;2023-02-01T07:37:53;9.10;;;2.60;;
34064;SDS011;20339;49.754;20.158;2023-02-01T07:40:26;8.90;;;2.60;;
34064;SDS011;20339;49.754;20.158;2023-02-01T07:42:58;5.70;;;1.80;;
34064;SDS011;20339;49.754;20.158;2023-02-01T07:45:29;7.60;;;2.30;;
34064;SDS011;20339;49.754;20.158;2023-02-01T07:48:00;8.70;;;2.30;;
34064;SDS011;20339;49.754;20.158;2023-02-01T07:50:32;11.40;;;2.80;;
34064;SDS011;20339;49.754;20.158;2023-02-01T07:53:03;6.30;;;2.10;;
34064;SDS011;20339;49.754;20.158;2023-02-01T07:55:34;6.90;;;1.60;;
34064;SDS011;20339;49.754;20.158;2023-02-01T07:58:08;5.20;;;1.40;;
34064;SDS011;20339;49.754;20.158;2023-02-01T08:00:39;6.20;;;1.70;;
34064;SDS011;20339;49.754;20.158;2023-02-01T08:03:28;8.30;;;2.30;;
34064;SDS011;20339;49.754;20.158;2023-02-01T08:05:59;7.20;;;2.00;;
34064;SDS011;20339;49.754;20.158;2023-02-01T08:08:30;5.30;;;1.80;;
34064;SDS011;20339;49.754;20.158;2023-02-01T08:11:02;4.80;;;1.90;;
34064;SDS011;20339;49.754;20.158;2023-02-01T08:13:35;6.70;;;1.50;;
34064;SDS011;20339;49.754;20.158;2023-02-01T08:16:07;6.00;;;2.60;;
34064;SDS011;20339;49.754;20.158;2023-02-01T08:18:40;9.80;;;3.20;;
34064;SDS011;20339;49.754;20.158;2023-02-01T08:21:12;5.60;;;2.70;;
34064;SDS011;20339;49.754;20.158;2023-02-01T08:23:44;6.70;;;2.20;;
34064;SDS011;20339;49.754;20.158;2023-02-01T08:26:16;6.70;;;2.90;;
34064;SDS011;20339;49.754;20.158;2023-02-01T08:28:51;7.50;;;2.40;;
34064;SDS011;20339;49.754;20.158;2023-02-01T08:31:24;8.50;;;2.90;;
34064;SDS011;20339;49.754;20.158;2023-02-01T08:33:57;8.40;;;2.50;;
34064;SDS011;20339;49.754;20.158;2023-02-01T08:36:32;5.30;;;1.40;;
34064;SDS011;20339;49.754;20.158;2023-02-01T08:39:04;10.50;;;3.60;;
34064;SDS011;20339;49.754;20.158;2023-02-01T08:41:37;9.70;;;3.40;;
34064;SDS011;20339;49.754;20.158;2023-02-01T08:44:10;9.60;;;3.50;;
34064;SDS011;20339;49.754;20.158;2023-02-01T08:46:41;7.90;;;2.60;;
34064;SDS011;20339;49.754;20.158;2023-02-01T08:49:12;10.80;;;2.60;;
34064;SDS011;20339;49.754;20.158;2023-02-01T08:51:44;4.30;;;1.80;;
34064;SDS011;20339;49.754;20.158;2023-02-01T08:54:15;8.30;;;3.10;;
34064;SDS011;20339;49.754;20.158;2023-02-01T08:56:47;5.50;;;2.20;;
34064;SDS011;20339;49.754;20.158;2023-02-01T08:59:18;5.80;;;1.60;;
34064;SDS011;20339;49.754;20.158;2023-02-01T09:01:49;6.10;;;2.20;;
34064;SDS011;20339;49.754;20.158;2023-02-01T09:04:31;6.60;;;2.40;;
34064;SDS011;20339;49.754;20.158;2023-02-01T09:07:02;8.30;;;2.90;;
34064;SDS011;20339;49.754;20.158;2023-02-01T09:09:33;7.40;;;2.70;;
34064;SDS011;20339;49.754;20.158;2023-02-01T09:12:06;5.60;;;2.50;;
34064;SDS011;20339;49.754;20.158;2023-02-01T09:14:40;6.20;;;2.00;;
34064;SDS011;20339;49.754;20.158;2023-02-01T09:17:11;4.10;;;2.20;;
34064;SDS011;20339;49.754;20.158;2023-02-01T09:19:42;4.50;;;1.90;;
34064;SDS011;20339;49.754;20.158;2023-02-01T09:22:13;8.10;;;2.70;;
34064;SDS011;20339;49.754;20.158;2023-02-01T09:24:45;5.40;;;2.40;;
34064;SDS011;20339;49.754;20.158;2023-02-01T09:27:16;4.70;;;2.00;;
34064;SDS011;20339;49.754;20.158;2023-02-01T09:29:49;10.00;;;3.10;;
34064;SDS011;20339;49.754;20.158;2023-02-01T09:32:21;5.20;;;2.50;;
34064;SDS011;20339;49.754;20.158;2023-02-01T09:34:53;6.50;;;2.20;;
34064;SDS011;20339;49.754;20.158;2023-02-01T09:37:24;4.20;;;1.90;;
34064;SDS011;20339;49.754;20.158;2023-02-01T09:39:55;6.80;;;2.20;;
34064;SDS011;20339;49.754;20.158;2023-02-01T09:42:36;4.70;;;2.40;;
34064;SDS011;20339;49.754;20.158;2023-02-01T09:45:19;5.50;;;2.50;;
34064;SDS011;20339;49.754;20.158;2023-02-01T09:47:57;7.40;;;3.20;;
34064;SDS011;20339;49.754;20.158;2023-02-01T09:50:33;6.10;;;2.50;;
34064;SDS011;20339;49.754;20.158;2023-02-01T09:53:10;5.90;;;2.20;;
34064;SDS011;20339;49.754;20.158;2023-02-01T09:55:48;6.10;;;2.60;;
34064;SDS011;20339;49.754;20.158;2023-02-01T09:58:24;5.50;;;2.00;;
34064;SDS011;20339;49.754;20.158;2023-02-01T10:00:59;5.20;;;2.50;;
34064;SDS011;20339;49.754;20.158;2023-02-01T10:03:32;8.10;;;3.20;;
34064;SDS011;20339;49.754;20.158;2023-02-01T10:06:09;7.80;;;2.60;;
34064;SDS011;20339;49.754;20.158;2023-02-01T10:09:12;6.70;;;2.80;;
34064;SDS011;20339;49.754;20.158;2023-02-01T10:11:54;6.00;;;2.80;;
34064;SDS011;20339;49.754;20.158;2023-02-01T10:14:57;5.20;;;2.20;;
34064;SDS011;20339;49.754;20.158;2023-02-01T10:17:36;5.70;;;2.70;;
34064;SDS011;20339;49.754;20.158;2023-02-01T10:20:18;6.00;;;2.10;;
34064;SDS011;20339;49.754;20.158;2023-02-01T10:23:04;7.00;;;2.50;;
34064;SDS011;20339;49.754;20.158;2023-02-01T10:25:48;1.30;;;1.20;;
34064;SDS011;20339;49.754;20.158;2023-02-01T10:28:25;6.30;;;2.20;;
34064;SDS011;20339;49.754;20.158;2023-02-01T10:30:58;6.00;;;2.10;;
34064;SDS011;20339;49.754;20.158;2023-02-01T10:33:32;6.80;;;1.90;;
34064;SDS011;20339;49.754;20.158;2023-02-01T10:36:10;5.70;;;2.10;;
34064;SDS011;20339;49.754;20.158;2023-02-01T10:38:47;3.80;;;2.00;;
34064;SDS011;20339;49.754;20.158;2023-02-01T10:41:20;5.60;;;2.00;;
34064;SDS011;20339;49.754;20.158;2023-02-01T10:43:54;6.70;;;2.20;;
34064;SDS011;20339;49.754;20.158;2023-02-01T10:46:29;4.00;;;2.20;;
34064;SDS011;20339;49.754;20.158;2023-02-01T10:49:02;9.10;;;2.80;;
34064;SDS011;20339;49.754;20.158;2023-02-01T10:51:41;5.30;;;1.70;;
34064;SDS011;20339;49.754;20.158;2023-02-01T10:54:17;7.70;;;2.50;;
34064;SDS011;20339;49.754;20.158;2023-02-01T10:56:49;7.10;;;2.90;;
34064;SDS011;20339;49.754;20.158;2023-02-01T10:59:24;4.50;;;2.10;;
34064;SDS011;20339;49.754;20.158;2023-02-01T11:02:01;3.60;;;1.90;;
34064;SDS011;20339;49.754;20.158;2023-02-01T11:04:43;8.10;;;3.00;;
34064;SDS011;20339;49.754;20.158;2023-02-01T11:07:17;6.40;;;2.50;;
34064;SDS011;20339;49.754;20.158;2023-02-01T11:09:54;7.80;;;3.40;;
34064;SDS011;20339;49.754;20.158;2023-02-01T11:12:29;8.00;;;2.50;;
34064;SDS011;20339;49.754;20.158;2023-02-01T11:15:14;5.90;;;3.20;;
34064;SDS011;20339;49.754;20.158;2023-02-01T11:17:49;4.90;;;2.20;;
34064;SDS011;20339;49.754;20.158;2023-02-01T11:20:26;4.40;;;2.20;;
34064;SDS011;20339;49.754;20.158;2023-02-01T11:23:11;5.80;;;2.40;;
34064;SDS011;20339;49.754;20.158;2023-02-01T11:25:49;3.90;;;2.50;;
34064;SDS011;20339;49.754;20.158;2023-02-01T11:28:23;6.90;;;2.00;;
34064;SDS011;20339;49.754;20.158;2023-02-01T11:31:00;6.20;;;2.70;;
34064;SDS011;20339;49.754;20.158;2023-02-01T11:33:34;3.80;;;2.10;;
34064;SDS011;20339;49.754;20.158;2023-02-01T11:36:09;4.80;;;2.40;;
34064;SDS011;20339;49.754;20.158;2023-02-01T11:38:52;6.60;;;2.80;;
34064;SDS011;20339;49.754;20.158;2023-02-01T11:41:36;3.40;;;2.00;;
34064;SDS011;20339;49.754;20.158;2023-02-01T11:44:20;3.20;;;1.90;;
34064;SDS011;20339;49.754;20.158;2023-02-01T11:49:57;7.60;;;3.70;;
34064;SDS011;20339;49.754;20.158;2023-02-01T11:52:36;5.40;;;2.30;;
34064;SDS011;20339;49.754;20.158;2023-02-01T11:55:39;5.70;;;2.60;;
34064;SDS011;20339;49.754;20.158;2023-02-01T12:01:36;6.10;;;2.00;;
34064;SDS011;20339;49.754;20.158;2023-02-01T12:04:34;4.40;;;2.00;;
34064;SDS011;20339;49.754;20.158;2023-02-01T12:07:27;3.90;;;2.00;;
34064;SDS011;20339;49.754;20.158;2023-02-01T12:10:09;2.90;;;2.30;;
34064;SDS011;20339;49.754;20.158;2023-02-01T12:12:58;6.40;;;2.30;;
34064;SDS011;20339;49.754;20.158;2023-02-01T12:15:46;4.60;;;2.40;;
34064;SDS011;20339;49.754;20.158;2023-02-01T12:18:35;5.80;;;2.10;;
34064;SDS011;20339;49.754;20.158;2023-02-01T12:21:25;5.10;;;2.60;;
34064;SDS011;20339;49.754;20.158;2023-02-01T12:24:11;6.20;;;3.10;;
34064;SDS011;20339;49.754;20.158;2023-02-01T12:27:05;5.00;;;1.90;;
34064;SDS011;20339;49.754;20.158;2023-02-01T12:29:58;2.40;;;1.20;;
34064;SDS011;20339;49.754;20.158;2023-02-01T12:32:49;3.40;;;1.90;;
34064;SDS011;20339;49.754;20.158;2023-02-01T12:35:38;8.50;;;2.00;;
34064;SDS011;20339;49.754;20.158;2023-02-01T12:38:32;6.00;;;2.90;;
34064;SDS011;20339;49.754;20.158;2023-02-01T12:43:55;5.20;;;2.30;;
34064;SDS011;20339;49.754;20.158;2023-02-01T12:46:31;3.40;;;1.80;;
34064;SDS011;20339;49.754;20.158;2023-02-01T12:49:10;4.90;;;2.30;;
34064;SDS011;20339;49.754;20.158;2023-02-01T12:51:46;5.30;;;2.00;;
34064;SDS011;20339;49.754;20.158;2023-02-01T12:54:23;5.80;;;2.40;;
34064;SDS011;20339;49.754;20.158;2023-02-01T12:57:02;4.50;;;2.40;;
34064;SDS011;20339;49.754;20.158;2023-02-01T12:59:40;5.10;;;1.80;;
34064;SDS011;20339;49.754;20.158;2023-02-01T13:02:21;4.50;;;2.10;;
34064;SDS011;20339;49.754;20.158;2023-02-01T13:05:03;5.30;;;2.20;;
34064;SDS011;20339;49.754;20.158;2023-02-01T13:07:45;2.40;;;1.50;;
34064;SDS011;20339;49.754;20.158;2023-02-01T13:10:20;2.00;;;1.50;;
34064;SDS011;20339;49.754;20.158;2023-02-01T13:13:07;4.30;;;1.70;;
34064;SDS011;20339;49.754;20.158;2023-02-01T13:15:45;5.30;;;2.60;;
34064;SDS011;20339;49.754;20.158;2023-02-01T13:18:21;5.10;;;2.30;;
34064;SDS011;20339;49.754;20.158;2023-02-01T13:21:03;4.20;;;1.90;;
34064;SDS011;20339;49.754;20.158;2023-02-01T13:23:38;7.00;;;2.90;;
34064;SDS011;20339;49.754;20.158;2023-02-01T13:26:11;5.30;;;3.00;;
34064;SDS011;20339;49.754;20.158;2023-02-01T13:28:44;5.30;;;1.80;;
34064;SDS011;20339;49.754;20.158;2023-02-01T13:31:23;3.80;;;2.50;;
34064;SDS011;20339;49.754;20.158;2023-02-01T13:34:27;6.10;;;2.50;;
34064;SDS011;20339;49.754;20.158;2023-02-01T13:37:26;3.70;;;2.00;;
34064;SDS011;20339;49.754;20.158;2023-02-01T13:40:18;7.40;;;3.30;;
34064;SDS011;20339;49.754;20.158;2023-02-01T13:43:04;4.50;;;2.20;;
34064;SDS011;20339;49.754;20.158;2023-02-01T13:45:46;7.90;;;3.50;;
34064;SDS011;20339;49.754;20.158;2023-02-01T13:48:23;5.50;;;2.90;;
34064;SDS011;20339;49.754;20.158;2023-02-01T13:51:00;5.20;;;2.60;;
34064;SDS011;20339;49.754;20.158;2023-02-01T13:53:33;7.50;;;3.00;;
34064;SDS011;20339;49.754;20.158;2023-02-01T13:56:15;5.70;;;3.50;;
34064;SDS011;20339;49.754;20.158;2023-02-01T13:58:49;6.60;;;3.30;;
34064;SDS011;20339;49.754;20.158;2023-02-01T14:07:21;5.70;;;2.30;;
34064;SDS011;20339;49.754;20.158;2023-02-01T14:09:54;6.60;;;2.80;;
34064;SDS011;20339;49.754;20.158;2023-02-01T14:15:24;6.20;;;2.60;;
34064;SDS011;20339;49.754;20.158;2023-02-01T14:17:59;4.90;;;2.60;;
34064;SDS011;20339;49.754;20.158;2023-02-01T14:23:16;5.70;;;2.70;;
34064;SDS011;20339;49.754;20.158;2023-02-01T14:28:56;3.20;;;1.70;;
34064;SDS011;20339;49.754;20.158;2023-02-01T14:31:42;5.20;;;2.50;;
34064;SDS011;20339;49.754;20.158;2023-02-01T14:34:26;5.70;;;2.60;;
34064;SDS011;20339;49.754;20.158;2023-02-01T14:37:06;5.30;;;2.40;;
34064;SDS011;20339;49.754;20.158;2023-02-01T14:39:52;4.70;;;2.50;;
34064;SDS011;20339;49.754;20.158;2023-02-01T14:42:30;6.20;;;3.20;;
34064;SDS011;20339;49.754;20.158;2023-02-01T14:51:16;5.50;;;2.30;;
34064;SDS011;20339;49.754;20.158;2023-02-01T14:53:50;3.70;;;2.00;;
34064;SDS011;20339;49.754;20.158;2023-02-01T14:56:22;5.70;;;2.90;;
34064;SDS011;20339;49.754;20.158;2023-02-01T14:59:00;5.30;;;2.90;;
34064;SDS011;20339;49.754;20.158;2023-02-01T15:01:48;6.00;;;2.60;;
34064;SDS011;20339;49.754;20.158;2023-02-01T15:04:25;4.30;;;2.40;;
34064;SDS011;20339;49.754;20.158;2023-02-01T15:07:04;6.10;;;3.40;;
34064;SDS011;20339;49.754;20.158;2023-02-01T15:09:47;4.10;;;2.30;;
34064;SDS011;20339;49.754;20.158;2023-02-01T15:12:23;5.90;;;3.50;;
34064;SDS011;20339;49.754;20.158;2023-02-01T15:17:53;4.20;;;2.40;;
34064;SDS011;20339;49.754;20.158;2023-02-01T15:20:26;5.90;;;3.20;;
34064;SDS011;20339;49.754;20.158;2023-02-01T15:22:59;4.30;;;2.20;;
34064;SDS011;20339;49.754;20.158;2023-02-01T15:25:32;5.00;;;2.40;;
34064;SDS011;20339;49.754;20.158;2023-02-01T15:28:09;5.20;;;3.20;;
34064;SDS011;20339;49.754;20.158;2023-02-01T15:30:53;2.70;;;2.30;;
34064;SDS011;20339;49.754;20.158;2023-02-01T15:33:28;6.20;;;2.90;;
34064;SDS011;20339;49.754;20.158;2023-02-01T15:36:11;3.20;;;2.10;;
34064;SDS011;20339;49.754;20.158;2023-02-01T15:38:50;7.00;;;3.50;;
34064;SDS011;20339;49.754;20.158;2023-02-01T15:41:51;5.50;;;3.20;;
34064;SDS011;20339;49.754;20.158;2023-02-01T15:44:30;3.70;;;2.00;;
34064;SDS011;20339;49.754;20.158;2023-02-01T15:47:12;3.70;;;1.90;;
34064;SDS011;20339;49.754;20.158;2023-02-01T15:49:50;5.20;;;2.40;;
34064;SDS011;20339;49.754;20.158;2023-02-01T15:52:24;3.70;;;1.80;;
34064;SDS011;20339;49.754;20.158;2023-02-01T15:55:00;4.10;;;2.70;;
34064;SDS011;20339;49.754;20.158;2023-02-01T15:57:40;2.90;;;2.10;;
34064;SDS011;20339;49.754;20.158;2023-02-01T16:00:21;3.00;;;2.00;;
34064;SDS011;20339;49.754;20.158;2023-02-01T16:02:57;4.90;;;2.90;;
34064;SDS011;20339;49.754;20.158;2023-02-01T16:05:32;3.60;;;2.10;;
34064;SDS011;20339;49.754;20.158;2023-02-01T16:08:11;5.30;;;3.20;;
34064;SDS011;20339;49.754;20.158;2023-02-01T16:10:47;5.20;;;2.70;;